KCOF

Patrick AFB Airport

Cocoa Beach, Florida, USA
METAR KCOF 212156Z AUTO 31009KT 10SM CLR 28/26 A2989 RMK AO2 SLP126 T02790259
Observed Flight Rules
Jun-21 @ 21:56 UTC (9 minutes ago) Visual Flight Rules
Wind Visibility Clouds
310° at 9 knots 10 miles
  • Clear skies
Temperatures Readings
Current 28°C / 82°F
Dewpoint 26°C / 79°F
Humidity 89%
Altimeter 29.89" Hg
Pressure 1012.6 hPa
Elevation 3
METAR KCOF 212156Z AUTO 31009KT 10SM CLR 28/26 A2989 RMK AO2 SLP126 T02790259
Observed Flight Rules
Jun-21 @ 21:56 UTC
(9 minutes ago)
VFR
Wind Visibility
310° at 9 knots 10 miles
Clouds
  • Clear skies
Temperature Dewpoint
28°C / 82°F 26°C / 79°F
Humidity Altimeter Pressure
89% 29.89" Hg 1012.6 hPa